createdAt,value
2023-04-26T00:00:11.347Z,96.3075
2023-04-26T00:01:12.042Z,96.2672
2023-04-26T00:02:12.797Z,96.3237
2023-04-26T00:03:13.628Z,96.3036
2023-04-26T00:04:14.817Z,96.1583
2023-04-26T00:05:15.742Z,96.0413
2023-04-26T00:06:16.455Z,96.1705
2023-04-26T00:07:17.138Z,96.1880
2023-04-26T00:08:17.776Z,96.1708
2023-04-26T00:09:18.505Z,96.0868
2023-04-26T00:10:19.171Z,96.1110
2023-04-26T00:11:19.835Z,96.0926
2023-04-26T00:12:20.542Z,96.1452
2023-04-26T00:13:21.260Z,96.2128
2023-04-26T00:14:21.900Z,96.1824
2023-04-26T00:15:22.584Z,96.2559
2023-04-26T00:16:23.255Z,96.3497
2023-04-26T00:17:23.896Z,96.3853
2023-04-26T00:18:24.516Z,96.5080
2023-04-26T00:19:25.159Z,96.4141
2023-04-26T00:20:25.787Z,96.4153
2023-04-26T00:21:26.439Z,96.5406
2023-04-26T00:22:27.052Z,96.5684
2023-04-26T00:23:27.730Z,96.7484
2023-04-26T00:24:28.468Z,96.8774
2023-04-26T00:25:29.130Z,96.7663
2023-04-26T00:26:29.773Z,96.6566
2023-04-26T00:27:30.430Z,96.5868
2023-04-26T00:28:31.045Z,96.6651
2023-04-26T00:29:31.748Z,96.7268
2023-04-26T00:30:32.445Z,96.5831
2023-04-26T00:31:33.107Z,96.4964
2023-04-26T00:32:33.751Z,96.4786
2023-04-26T00:33:34.475Z,96.4888
2023-04-26T00:34:35.167Z,96.4882
2023-04-26T00:35:35.834Z,96.5920
2023-04-26T00:36:36.608Z,96.5042
2023-04-26T00:37:37.336Z,96.6204
2023-04-26T00:38:37.960Z,96.6316
2023-04-26T00:39:38.700Z,96.7052
2023-04-26T00:40:39.374Z,96.8731
2023-04-26T00:41:40.084Z,96.7674
2023-04-26T00:42:40.741Z,96.6095
2023-04-26T00:43:41.426Z,96.3725
2023-04-26T00:44:42.110Z,96.3113
2023-04-26T00:45:42.839Z,96.2868
2023-04-26T00:46:43.471Z,96.2287
2023-04-26T00:47:44.162Z,96.1216
2023-04-26T00:48:44.790Z,96.0286
2023-04-26T00:49:45.483Z,95.9734
2023-04-26T00:50:46.159Z,95.9113
2023-04-26T00:51:46.829Z,96.0786
2023-04-26T00:52:47.558Z,95.9378
2023-04-26T00:53:48.210Z,95.7067
2023-04-26T00:54:48.939Z,95.5521
2023-04-26T00:55:49.661Z,95.4596
2023-04-26T00:56:50.348Z,95.3769
2023-04-26T00:57:51.000Z,95.1519
2023-04-26T00:58:51.870Z,95.1533
2023-04-26T00:59:52.828Z,95.1226
2023-04-26T01:00:53.811Z,95.1545
2023-04-26T01:01:54.530Z,95.3267
2023-04-26T01:02:55.314Z,95.4056
2023-04-26T01:03:56.131Z,95.3473
2023-04-26T01:04:57.037Z,95.2993
2023-04-26T01:05:57.688Z,95.4006
2023-04-26T01:06:58.390Z,95.3190
2023-04-26T01:07:59.102Z,95.3850
2023-04-26T01:08:59.773Z,95.2833
2023-04-26T01:10:00.464Z,95.3737
2023-04-26T01:11:01.157Z,95.5145
2023-04-26T01:12:01.867Z,95.4770
2023-04-26T01:13:02.582Z,95.5630
2023-04-26T01:14:03.257Z,95.6286
2023-04-26T01:15:03.978Z,95.6730
2023-04-26T01:16:04.694Z,95.7689
2023-04-26T01:17:05.340Z,95.7065
2023-04-26T01:18:06.093Z,95.6526
2023-04-26T01:19:06.735Z,95.6430
2023-04-26T01:20:07.422Z,95.8558
2023-04-26T01:21:08.126Z,95.9412
2023-04-26T01:22:08.873Z,96.0714
2023-04-26T01:23:09.535Z,96.2867
2023-04-26T01:24:10.209Z,96.3552
2023-04-26T01:25:10.898Z,96.5856
2023-04-26T01:26:11.595Z,96.6707
2023-04-26T01:27:12.230Z,96.6459
2023-04-26T01:28:12.878Z,96.7671
2023-04-26T01:29:13.598Z,96.8005
2023-04-26T01:30:14.361Z,96.8152
2023-04-26T01:31:15.030Z,96.9061
2023-04-26T01:32:15.734Z,96.9774
2023-04-26T01:33:16.472Z,97.0305
2023-04-26T01:34:17.192Z,97.0762
2023-04-26T01:35:17.916Z,97.0776
2023-04-26T01:36:18.565Z,97.1280
2023-04-26T01:37:19.231Z,97.1739
2023-04-26T01:38:19.963Z,97.2326
2023-04-26T01:39:20.603Z,97.2814
2023-04-26T01:40:21.358Z,97.4076
2023-04-26T01:41:21.984Z,97.2227
2023-04-26T01:42:22.689Z,97.1448
2023-04-26T01:43:23.388Z,97.1295
2023-04-26T01:44:24.053Z,97.1819
2023-04-26T01:45:24.739Z,97.2137
2023-04-26T01:46:25.442Z,97.1228
2023-04-26T01:47:26.121Z,97.1437
2023-04-26T01:48:26.784Z,97.2270
2023-04-26T01:49:27.455Z,97.2004
2023-04-26T01:50:28.122Z,97.1663
2023-04-26T01:51:28.962Z,97.0544
2023-04-26T01:52:29.784Z,97.1185
2023-04-26T01:53:30.531Z,97.2428
2023-04-26T01:54:31.189Z,97.2836
2023-04-26T01:55:31.855Z,97.1795
2023-04-26T01:56:32.666Z,97.1336
2023-04-26T01:57:33.407Z,97.0677
2023-04-26T01:58:34.100Z,97.1299
2023-04-26T01:59:34.737Z,97.0902
2023-04-26T02:00:35.454Z,96.8105
2023-04-26T02:01:36.118Z,96.7896
2023-04-26T02:02:36.945Z,96.8629
2023-04-26T02:03:37.844Z,96.9542
2023-04-26T02:04:38.565Z,97.0574
2023-04-26T02:05:39.194Z,97.0681
2023-04-26T02:06:39.896Z,97.1352
2023-04-26T02:07:40.609Z,97.1269
2023-04-26T02:08:41.247Z,97.2117
2023-04-26T02:09:41.943Z,97.1949
2023-04-26T02:10:42.659Z,97.3275
2023-04-26T02:11:43.358Z,97.5280
2023-04-26T02:12:44.066Z,97.6062
2023-04-26T02:13:44.711Z,97.7433
2023-04-26T02:14:45.361Z,97.7816
2023-04-26T02:15:46.127Z,97.7928
2023-04-26T02:16:46.881Z,97.8381
2023-04-26T02:17:47.547Z,97.8762
2023-04-26T02:18:48.289Z,97.8965
2023-04-26T02:19:48.939Z,97.9083
2023-04-26T02:20:49.650Z,97.8892
2023-04-26T02:21:50.337Z,97.8940
2023-04-26T02:22:50.998Z,97.8244
2023-04-26T02:23:51.629Z,97.8148
2023-04-26T02:24:52.319Z,97.7429
2023-04-26T02:25:52.987Z,97.6385
2023-04-26T02:26:53.682Z,97.5814
2023-04-26T02:27:54.357Z,97.6251
2023-04-26T02:28:55.159Z,97.6776
2023-04-26T02:29:55.846Z,97.6818
2023-04-26T02:30:56.556Z,97.7006
2023-04-26T02:31:57.377Z,97.6903
2023-04-26T02:32:58.092Z,97.6025
2023-04-26T02:33:58.778Z,97.7398
2023-04-26T02:34:59.527Z,97.9505
2023-04-26T02:36:00.186Z,98.0138
2023-04-26T02:37:00.912Z,98.0273
2023-04-26T02:38:01.632Z,98.0666
2023-04-26T02:39:02.325Z,98.0625
2023-04-26T02:40:03.054Z,98.0645
2023-04-26T02:41:03.940Z,98.1161
2023-04-26T02:42:04.708Z,98.1288
2023-04-26T02:43:05.385Z,98.0650
2023-04-26T02:44:06.091Z,98.1367
2023-04-26T02:45:06.854Z,98.1131
2023-04-26T02:46:07.563Z,98.1387
2023-04-26T02:47:08.321Z,98.1914
2023-04-26T02:48:09.083Z,98.1123
2023-04-26T02:49:09.750Z,98.2032
2023-04-26T02:50:10.420Z,98.1524
2023-04-26T02:51:11.104Z,98.0192
2023-04-26T02:52:11.814Z,97.6174
2023-04-26T02:53:12.514Z,97.5269
2023-04-26T02:54:13.252Z,97.6878
2023-04-26T02:55:13.928Z,97.6050
2023-04-26T02:56:14.620Z,97.4723
2023-04-26T02:57:15.287Z,97.4936
2023-04-26T02:58:16.000Z,97.5388
2023-04-26T02:59:16.673Z,97.6152
2023-04-26T03:00:17.399Z,97.6912
2023-04-26T03:01:18.159Z,97.6722
2023-04-26T03:02:18.970Z,97.7795
2023-04-26T03:03:19.910Z,97.9225
2023-04-26T03:04:21.030Z,98.0193
2023-04-26T03:05:21.705Z,98.1374
2023-04-26T03:06:22.428Z,98.1841
2023-04-26T03:07:23.138Z,98.1779
2023-04-26T03:08:23.988Z,98.1802
2023-04-26T03:09:24.606Z,98.1835
2023-04-26T03:10:25.285Z,98.1467
2023-04-26T03:11:26.011Z,98.1302
2023-04-26T03:12:26.123Z,98.1205
2023-04-26T03:13:26.852Z,98.1753
2023-04-26T03:14:27.528Z,98.1624
2023-04-26T03:15:28.216Z,98.1765
2023-04-26T03:16:28.969Z,98.1874
2023-04-26T03:17:29.625Z,98.2259
2023-04-26T03:18:30.363Z,98.2831
2023-04-26T03:19:31.020Z,98.3139
2023-04-26T03:20:31.685Z,98.3230
2023-04-26T03:21:32.357Z,98.2189
2023-04-26T03:22:33.036Z,98.1509
2023-04-26T03:23:33.760Z,98.1385
2023-04-26T03:24:34.448Z,98.1474
2023-04-26T03:25:35.154Z,98.1697
2023-04-26T03:26:35.838Z,98.1396
2023-04-26T03:27:36.506Z,98.1058
2023-04-26T03:28:37.203Z,98.0534
2023-04-26T03:29:37.920Z,97.9231
2023-04-26T03:30:38.621Z,97.9027
2023-04-26T03:31:39.461Z,97.8929
2023-04-26T03:32:40.185Z,97.8956
2023-04-26T03:33:40.787Z,97.8886
2023-04-26T03:34:41.490Z,97.8732
2023-04-26T03:35:42.192Z,97.8765
2023-04-26T03:36:42.927Z,97.8492
2023-04-26T03:37:43.575Z,97.8916
2023-04-26T03:38:44.247Z,97.8794
2023-04-26T03:39:44.952Z,97.8664
2023-04-26T03:40:45.684Z,97.7273
2023-04-26T03:41:46.367Z,97.7177
2023-04-26T03:42:47.122Z,97.7206
2023-04-26T03:43:47.767Z,97.7949
2023-04-26T03:44:48.466Z,97.8603
2023-04-26T03:45:49.148Z,97.9190
2023-04-26T03:46:49.902Z,97.9574
2023-04-26T03:47:50.693Z,97.9397
2023-04-26T03:48:51.703Z,97.9592
2023-04-26T03:49:52.808Z,98.0283
2023-04-26T03:50:53.505Z,98.0787
2023-04-26T03:51:54.181Z,98.0485
2023-04-26T03:52:54.882Z,98.0468
2023-04-26T03:53:55.593Z,98.0914
2023-04-26T03:54:56.264Z,98.0550
2023-04-26T03:55:56.936Z,98.0592
2023-04-26T03:56:57.619Z,98.1379
2023-04-26T03:57:58.534Z,98.1888
2023-04-26T03:58:59.173Z,98.2829
2023-04-26T03:59:59.934Z,98.2832
2023-04-26T04:01:00.571Z,98.3248
2023-04-26T04:02:01.267Z,98.4151
2023-04-26T04:03:02.016Z,98.5175
2023-04-26T04:04:02.935Z,98.5645
2023-04-26T04:05:03.853Z,98.5842
2023-04-26T04:06:04.620Z,98.6171
2023-04-26T04:07:05.308Z,98.6761
2023-04-26T04:08:06.017Z,98.8214
2023-04-26T04:09:06.728Z,98.8416
2023-04-26T04:10:07.401Z,98.9002
2023-04-26T04:11:08.137Z,98.9067
2023-04-26T04:12:08.834Z,98.9235
2023-04-26T04:13:09.547Z,98.9951
2023-04-26T04:14:10.302Z,99.0070
2023-04-26T04:15:10.998Z,98.9780
2023-04-26T04:16:11.756Z,98.9136
2023-04-26T04:17:12.428Z,98.9067
2023-04-26T04:18:13.177Z,98.8851
2023-04-26T04:19:13.888Z,98.9690
2023-04-26T04:20:14.622Z,98.9340
2023-04-26T04:21:15.347Z,98.8946
2023-04-26T04:22:16.071Z,98.8798
2023-04-26T04:23:16.787Z,98.7908
2023-04-26T04:24:17.429Z,98.8773
2023-04-26T04:25:18.108Z,99.0194
2023-04-26T04:26:18.754Z,98.9527
2023-04-26T04:27:19.523Z,98.9495
2023-04-26T04:28:20.174Z,98.9206
2023-04-26T04:29:20.875Z,98.8849
2023-04-26T04:30:21.584Z,98.8754
2023-04-26T04:31:22.363Z,98.8907
2023-04-26T04:32:23.181Z,98.8875
2023-04-26T04:33:23.878Z,98.7794
2023-04-26T04:34:24.575Z,98.7542
2023-04-26T04:35:25.251Z,98.6123
2023-04-26T04:36:25.924Z,98.5503
2023-04-26T04:37:26.615Z,98.4536
2023-04-26T04:38:27.315Z,98.3653
2023-04-26T04:39:27.953Z,98.3299
2023-04-26T04:40:28.663Z,98.3048
2023-04-26T04:41:29.404Z,98.3002
2023-04-26T04:42:30.087Z,98.3023
2023-04-26T04:43:31.087Z,98.2410
2023-04-26T04:44:31.885Z,98.1751
2023-04-26T04:45:32.574Z,98.1564
2023-04-26T04:46:33.312Z,98.1387
2023-04-26T04:47:34.247Z,98.0387
2023-04-26T04:48:34.995Z,97.9543
2023-04-26T04:49:35.710Z,97.8744
2023-04-26T04:50:36.394Z,97.7895
2023-04-26T04:51:37.122Z,97.6474
2023-04-26T04:52:37.923Z,97.4769
2023-04-26T04:53:38.638Z,97.3634
2023-04-26T04:54:39.250Z,97.3211
2023-04-26T04:55:39.980Z,97.3511
2023-04-26T04:56:40.622Z,97.3426
2023-04-26T04:57:43.117Z,97.4431
2023-04-26T04:58:43.948Z,97.5032
2023-04-26T04:59:44.737Z,97.5747
2023-04-26T05:00:45.412Z,97.5745
2023-04-26T05:01:46.134Z,97.4359
2023-04-26T05:02:46.951Z,97.4051
2023-04-26T05:03:47.776Z,97.4157
2023-04-26T05:04:48.541Z,97.4838
2023-04-26T05:05:49.294Z,97.4705
2023-04-26T05:06:50.039Z,97.3817
2023-04-26T05:07:50.900Z,97.2805
2023-04-26T05:08:51.628Z,97.1732
2023-04-26T05:09:52.325Z,97.2316
2023-04-26T05:10:52.958Z,97.2257
2023-04-26T05:11:53.620Z,97.1741
2023-04-26T05:12:54.340Z,97.0693
2023-04-26T05:13:55.592Z,97.0959
2023-04-26T05:14:56.699Z,96.9438
2023-04-26T05:15:57.503Z,96.7495
2023-04-26T05:16:58.205Z,96.6346
2023-04-26T05:17:58.966Z,96.6065
2023-04-26T05:18:59.670Z,96.5463
2023-04-26T05:20:00.494Z,96.4075
2023-04-26T05:21:01.201Z,96.4367
2023-04-26T05:22:01.907Z,96.4976
2023-04-26T05:23:02.626Z,96.5266
2023-04-26T05:24:03.363Z,96.5486
2023-04-26T05:25:04.064Z,96.5562
2023-04-26T05:26:04.747Z,96.5816
2023-04-26T05:27:05.443Z,96.6813
2023-04-26T05:28:06.144Z,96.6549
2023-04-26T05:29:06.811Z,96.5037
2023-04-26T05:30:07.454Z,96.4019
2023-04-26T05:31:10.632Z,96.5674
2023-04-26T05:32:09.354Z,96.5599
2023-04-26T05:33:10.073Z,96.4016
2023-04-26T05:34:10.743Z,96.3914
2023-04-26T05:35:11.397Z,96.2655
2023-04-26T05:36:12.083Z,96.2857
2023-04-26T05:37:12.742Z,96.3477
2023-04-26T05:38:13.485Z,96.2956
2023-04-26T05:39:14.157Z,96.1056
2023-04-26T05:40:14.837Z,96.0802
2023-04-26T05:41:15.570Z,95.9701
2023-04-26T05:42:17.855Z,95.9356
2023-04-26T05:43:19.136Z,95.7926
2023-04-26T05:44:19.928Z,95.6309
2023-04-26T05:45:20.626Z,95.4540
2023-04-26T05:46:21.607Z,95.4698
2023-04-26T05:47:22.613Z,95.5972
2023-04-26T05:48:23.331Z,95.6440
2023-04-26T05:49:24.017Z,95.4706
2023-04-26T05:50:24.749Z,95.3696
2023-04-26T05:51:25.456Z,95.2486
2023-04-26T05:52:26.179Z,94.9939
2023-04-26T05:53:26.923Z,94.7596
2023-04-26T05:54:27.628Z,94.7737
2023-04-26T05:55:28.367Z,94.8223
2023-04-26T05:56:29.121Z,94.4954
2023-04-26T05:57:29.943Z,94.6335
2023-04-26T05:58:30.662Z,94.7559
2023-04-26T05:59:31.376Z,94.5486
2023-04-26T06:00:32.108Z,94.6066
2023-04-26T06:01:32.873Z,94.5452
2023-04-26T06:02:33.876Z,94.2523
2023-04-26T06:03:35.151Z,94.0949
2023-04-26T06:04:36.191Z,93.9349
2023-04-26T06:05:36.944Z,94.2607
2023-04-26T06:06:37.785Z,94.5054
2023-04-26T06:07:38.499Z,94.1904
2023-04-26T06:08:39.229Z,94.1691
2023-04-26T06:09:39.935Z,93.9619
2023-04-26T06:10:40.673Z,93.9736
2023-04-26T06:11:41.321Z,93.7435
2023-04-26T06:12:42.056Z,93.5182
2023-04-26T06:13:43.126Z,93.4188
2023-04-26T06:14:43.946Z,93.6330
2023-04-26T06:15:44.605Z,93.7613
2023-04-26T06:16:45.428Z,93.7698
2023-04-26T06:17:46.132Z,93.6252
2023-04-26T06:18:46.902Z,94.0040
2023-04-26T06:19:47.698Z,93.9500
2023-04-26T06:20:48.440Z,93.5563
2023-04-26T06:21:49.169Z,93.0072
2023-04-26T06:22:49.939Z,93.0304
2023-04-26T06:23:50.942Z,92.7908
2023-04-26T06:24:52.004Z,92.8296
2023-04-26T06:25:52.669Z,93.5094
2023-04-26T06:26:53.414Z,93.4454
2023-04-26T06:27:54.163Z,93.8612
2023-04-26T06:28:54.890Z,93.9527
2023-04-26T06:29:55.605Z,93.9245
2023-04-26T06:30:56.450Z,93.1596
2023-04-26T06:31:57.173Z,93.0072
2023-04-26T06:32:58.032Z,92.4016
2023-04-26T06:33:58.779Z,92.1855
2023-04-26T06:34:59.509Z,92.4448
2023-04-26T06:36:00.223Z,92.8330
2023-04-26T06:37:00.994Z,92.9629
2023-04-26T06:38:01.689Z,92.6467
2023-04-26T06:39:02.419Z,92.2582
2023-04-26T06:40:03.124Z,92.3144
2023-04-26T06:41:03.863Z,92.3367
2023-04-26T06:42:04.633Z,91.4831
2023-04-26T06:43:05.370Z,91.8719
2023-04-26T06:44:06.126Z,92.6709
2023-04-26T06:45:06.881Z,92.1548
2023-04-26T06:46:07.602Z,92.1766
2023-04-26T06:47:08.311Z,92.0402
2023-04-26T06:48:09.098Z,92.0446
2023-04-26T06:49:09.870Z,91.6999
2023-04-26T06:50:10.614Z,91.3187
2023-04-26T06:51:11.390Z,91.2331
2023-04-26T06:52:12.215Z,91.9851
2023-04-26T06:53:12.922Z,92.3732
2023-04-26T06:54:13.708Z,92.1922
2023-04-26T06:55:14.442Z,91.4006
2023-04-26T06:56:15.133Z,91.0155
2023-04-26T06:57:15.874Z,90.6883
2023-04-26T06:58:16.824Z,90.4234
2023-04-26T06:59:17.572Z,90.4568
2023-04-26T07:00:18.317Z,90.2118
2023-04-26T07:01:19.069Z,91.0682
2023-04-26T07:02:20.068Z,90.9545
2023-04-26T07:03:21.033Z,90.0490
2023-04-26T07:04:22.047Z,90.0453
2023-04-26T07:05:22.911Z,90.3787
2023-04-26T07:06:23.677Z,90.3476
2023-04-26T07:07:24.355Z,90.1590
2023-04-26T07:08:25.100Z,89.7250
2023-04-26T07:09:25.804Z,89.4440
2023-04-26T07:10:26.535Z,88.9417
2023-04-26T07:11:27.270Z,88.6832
2023-04-26T07:12:27.960Z,88.7307
2023-04-26T07:13:28.658Z,89.2755
2023-04-26T07:14:29.343Z,89.0566
2023-04-26T07:15:30.041Z,88.6743
2023-04-26T07:16:30.803Z,89.0068
2023-04-26T07:17:31.600Z,89.2683
2023-04-26T07:18:32.323Z,89.0969
2023-04-26T07:19:33.093Z,88.7273
2023-04-26T07:20:33.871Z,88.6675
2023-04-26T07:21:34.570Z,89.2226
2023-04-26T07:22:35.296Z,88.5071
2023-04-26T07:23:36.090Z,89.1130
2023-04-26T07:24:36.774Z,89.1056
2023-04-26T07:25:37.488Z,88.3269
2023-04-26T07:26:38.208Z,88.1906
2023-04-26T07:27:38.967Z,87.8482
2023-04-26T07:28:39.688Z,87.6209
2023-04-26T07:29:40.435Z,87.7565
2023-04-26T07:30:41.145Z,87.6212
2023-04-26T07:31:41.817Z,87.1001
2023-04-26T07:32:42.659Z,87.4072
2023-04-26T07:33:43.505Z,87.0945
2023-04-26T07:34:44.251Z,86.6763
2023-04-26T07:35:44.988Z,86.3147
2023-04-26T07:36:45.705Z,87.2146
2023-04-26T07:37:46.412Z,87.5459
2023-04-26T07:38:47.179Z,87.4085
2023-04-26T07:39:47.837Z,88.1779
2023-04-26T07:40:48.567Z,87.8475
2023-04-26T07:41:49.238Z,87.0625
2023-04-26T07:42:49.975Z,86.5540
2023-04-26T07:43:50.882Z,86.5356
2023-04-26T07:44:51.973Z,86.1030
2023-04-26T07:45:52.727Z,85.5448
2023-04-26T07:46:53.416Z,85.8024
2023-04-26T07:47:54.781Z,86.6033
2023-04-26T07:48:55.884Z,87.4180
2023-04-26T07:49:56.603Z,87.3080
2023-04-26T07:50:57.327Z,86.5350
2023-04-26T07:51:58.023Z,86.4024
2023-04-26T07:52:58.769Z,85.6218
2023-04-26T07:53:59.440Z,85.9428
2023-04-26T07:55:00.161Z,86.0644
2023-04-26T07:56:00.882Z,85.6397
2023-04-26T07:57:01.636Z,85.6814
2023-04-26T07:58:02.314Z,85.5847
2023-04-26T07:59:03.053Z,85.8760
2023-04-26T08:00:03.744Z,85.5437
2023-04-26T08:01:04.443Z,85.1272
2023-04-26T08:02:05.199Z,84.7986
2023-04-26T08:03:06.108Z,84.7087
2023-04-26T08:04:07.435Z,84.8619
2023-04-26T08:05:08.445Z,84.1090
2023-04-26T08:06:09.233Z,84.7471
2023-04-26T08:07:09.968Z,85.5655
2023-04-26T08:08:10.616Z,84.8606
2023-04-26T08:09:12.499Z,84.3890
2023-04-26T08:10:13.331Z,84.3969
2023-04-26T08:11:14.082Z,84.9384
2023-04-26T08:12:14.830Z,84.9057
2023-04-26T08:13:15.509Z,84.6033
2023-04-26T08:14:16.399Z,84.7781
2023-04-26T08:15:17.103Z,83.8988
2023-04-26T08:16:17.830Z,83.4078
2023-04-26T08:17:18.568Z,82.3979
2023-04-26T08:18:19.292Z,82.2491
2023-04-26T08:19:20.069Z,82.4281
2023-04-26T08:20:20.769Z,83.0414
2023-04-26T08:21:21.510Z,83.1411
2023-04-26T08:22:22.254Z,82.4372
2023-04-26T08:23:22.983Z,81.7626
2023-04-26T08:24:23.884Z,82.1517
2023-04-26T08:25:24.768Z,82.4529
2023-04-26T08:26:25.494Z,82.7868
2023-04-26T08:27:26.236Z,83.1191
2023-04-26T08:28:26.925Z,82.9304
2023-04-26T08:29:27.684Z,83.8829
2023-04-26T08:30:28.411Z,83.9101
2023-04-26T08:31:29.256Z,83.4888
2023-04-26T08:32:30.066Z,83.2965
2023-04-26T08:33:30.762Z,83.1637
2023-04-26T08:34:31.505Z,83.0540
2023-04-26T08:35:32.271Z,83.1504
2023-04-26T08:36:32.962Z,83.0526
2023-04-26T08:37:33.660Z,82.8145
2023-04-26T08:38:34.426Z,82.4314
2023-04-26T08:39:35.160Z,82.3166
2023-04-26T08:40:35.885Z,82.3742
2023-04-26T08:41:36.595Z,82.2700
2023-04-26T08:42:38.002Z,83.0821
2023-04-26T08:43:38.976Z,82.8894
2023-04-26T08:44:39.674Z,82.1860
2023-04-26T08:45:40.495Z,82.0046
2023-04-26T08:46:41.226Z,82.0800
2023-04-26T08:47:42.022Z,81.9357
2023-04-26T08:48:42.727Z,82.3487
2023-04-26T08:49:43.443Z,82.5100
2023-04-26T08:50:44.109Z,82.7840
2023-04-26T08:51:44.855Z,82.3598
2023-04-26T08:52:45.632Z,81.6754
2023-04-26T08:53:46.298Z,80.8761
2023-04-26T08:54:47.036Z,81.4846
2023-04-26T08:55:47.724Z,81.3523
2023-04-26T08:56:48.415Z,81.8274
2023-04-26T08:57:49.105Z,81.8099
2023-04-26T08:58:49.790Z,81.5903
2023-04-26T08:59:50.524Z,81.9597
2023-04-26T09:00:51.383Z,81.4293
2023-04-26T09:01:52.119Z,82.0898
2023-04-26T09:02:53.197Z,82.1447
2023-04-26T09:03:54.585Z,81.3544
2023-04-26T09:04:55.973Z,81.0276
2023-04-26T09:05:56.930Z,80.6986
2023-04-26T09:06:57.652Z,80.1285
2023-04-26T09:07:58.344Z,79.8726
2023-04-26T09:08:59.036Z,79.2243
2023-04-26T09:09:59.840Z,79.0105
2023-04-26T09:11:00.531Z,78.8529
2023-04-26T09:12:01.230Z,79.1609
2023-04-26T09:13:01.957Z,79.8244
2023-04-26T09:14:02.662Z,79.8156
2023-04-26T09:15:03.372Z,79.0720
2023-04-26T09:16:05.267Z,78.5261
2023-04-26T09:17:06.323Z,77.8126
2023-04-26T09:18:07.043Z,77.6588
2023-04-26T09:19:07.769Z,77.0497
2023-04-26T09:20:08.608Z,77.5478
2023-04-26T09:21:09.305Z,77.2014
2023-04-26T09:22:10.026Z,77.7093
2023-04-26T09:23:10.736Z,77.3887
2023-04-26T09:24:11.404Z,78.4943
2023-04-26T09:25:12.103Z,78.6499
2023-04-26T09:26:12.791Z,77.1532
2023-04-26T09:27:13.509Z,77.3025
2023-04-26T09:28:14.182Z,76.7960
2023-04-26T09:29:14.970Z,77.0444
2023-04-26T09:30:15.665Z,77.3716
2023-04-26T09:31:16.399Z,76.4926
2023-04-26T09:32:17.079Z,75.8910
2023-04-26T09:33:17.897Z,75.5738
2023-04-26T09:34:18.568Z,75.2538
2023-04-26T09:35:19.278Z,74.6847
2023-04-26T09:36:19.946Z,74.0397
2023-04-26T09:37:20.627Z,73.1650
2023-04-26T09:38:21.364Z,75.2250
2023-04-26T09:39:22.031Z,75.0865
2023-04-26T09:40:22.788Z,75.2429
2023-04-26T09:41:23.518Z,75.8600
2023-04-26T09:42:24.192Z,76.0244
2023-04-26T09:43:24.826Z,76.3016
2023-04-26T09:44:25.469Z,75.5511
2023-04-26T09:45:26.119Z,74.8525
2023-04-26T09:46:26.843Z,75.1188
2023-04-26T09:47:27.474Z,74.4235
2023-04-26T09:48:28.113Z,74.4981
2023-04-26T09:49:28.766Z,75.1298
2023-04-26T09:50:29.459Z,74.6774
2023-04-26T09:51:30.145Z,74.9023
2023-04-26T09:52:30.792Z,74.6941
2023-04-26T09:53:31.434Z,74.9611
2023-04-26T09:54:32.046Z,74.5263
2023-04-26T09:55:35.468Z,73.8672
2023-04-26T09:56:33.819Z,74.6056
2023-04-26T09:57:34.472Z,73.3116
2023-04-26T09:58:35.093Z,73.8913
2023-04-26T09:59:35.725Z,74.3624
2023-04-26T10:00:36.386Z,73.6443
2023-04-26T10:01:37.088Z,74.1165
2023-04-26T10:02:37.808Z,75.4536
2023-04-26T10:03:38.798Z,75.4290
2023-04-26T10:04:39.788Z,75.1413
2023-04-26T10:05:40.455Z,75.0597
2023-04-26T10:06:41.147Z,74.3529
2023-04-26T10:07:41.875Z,72.7639
2023-04-26T10:08:42.570Z,71.7988
2023-04-26T10:09:43.208Z,72.1098
2023-04-26T10:10:43.929Z,71.7868
2023-04-26T10:11:44.576Z,72.7031
2023-04-26T10:12:45.264Z,72.5659
2023-04-26T10:13:45.991Z,72.0256
2023-04-26T10:14:46.694Z,72.4975
2023-04-26T10:15:47.406Z,71.5517
2023-04-26T10:16:48.112Z,71.7422
2023-04-26T10:17:50.239Z,72.4876
2023-04-26T10:18:50.185Z,69.8943
2023-04-26T10:19:50.939Z,71.2055
2023-04-26T10:20:51.609Z,70.1972
2023-04-26T10:21:52.289Z,69.9577
2023-04-26T10:22:52.963Z,69.3810
2023-04-26T10:23:53.700Z,69.1946
2023-04-26T10:24:54.391Z,68.6906
2023-04-26T10:25:55.082Z,68.2729
2023-04-26T10:26:55.810Z,67.8379
2023-04-26T10:27:56.525Z,66.8930
2023-04-26T10:29:02.098Z,66.4159
2023-04-26T10:29:58.330Z,67.3719
2023-04-26T10:30:58.996Z,69.9473
2023-04-26T10:31:59.653Z,71.0388
2023-04-26T10:33:00.331Z,68.0814
2023-04-26T10:34:00.948Z,66.6183
2023-04-26T10:35:01.621Z,65.1753
2023-04-26T10:36:02.260Z,64.5309
2023-04-26T10:37:02.995Z,64.2816
2023-04-26T10:38:03.638Z,63.4394
2023-04-26T10:39:04.261Z,63.3750
2023-04-26T10:40:04.863Z,62.4321
2023-04-26T10:41:05.545Z,64.3786
2023-04-26T10:42:06.171Z,63.4786
2023-04-26T10:43:06.806Z,63.4421
2023-04-26T10:44:07.421Z,63.2400
2023-04-26T10:45:08.054Z,62.2957
2023-04-26T10:46:08.695Z,61.1835
2023-04-26T10:47:09.284Z,62.1381
2023-04-26T10:48:09.964Z,64.5479
2023-04-26T10:49:10.589Z,64.2449
2023-04-26T10:50:11.215Z,64.9681
2023-04-26T10:51:11.958Z,63.2484
2023-04-26T10:52:12.554Z,62.4308
2023-04-26T10:53:13.198Z,61.8343
2023-04-26T10:54:13.836Z,61.5170
2023-04-26T10:55:14.469Z,61.6277
2023-04-26T10:56:15.083Z,61.6212
2023-04-26T10:57:15.716Z,60.0069
2023-04-26T10:58:16.323Z,59.9431
2023-04-26T10:59:36.125Z,58.7128
2023-04-26T11:00:18.001Z,58.9504
2023-04-26T11:01:18.751Z,57.7356
2023-04-26T11:02:19.408Z,56.8551
2023-04-26T11:03:20.104Z,58.1226
2023-04-26T11:04:20.897Z,56.6408
2023-04-26T11:05:23.557Z,54.8289
2023-04-26T11:06:22.670Z,54.9069
2023-04-26T11:07:23.291Z,54.4997
2023-04-26T11:08:23.934Z,52.6540
2023-04-26T11:09:24.552Z,51.5088
2023-04-26T11:10:25.219Z,50.6475
2023-04-26T11:11:25.905Z,54.1470
2023-04-26T11:12:26.586Z,56.7852
2023-04-26T11:13:27.211Z,57.0751
2023-04-26T11:14:27.872Z,55.9968
2023-04-26T11:15:28.506Z,54.8875
2023-04-26T11:16:29.302Z,54.6908
2023-04-26T11:17:30.002Z,54.9715
2023-04-26T11:18:30.629Z,52.1279
2023-04-26T11:19:31.256Z,51.1127
2023-04-26T11:20:31.830Z,51.2201
2023-04-26T11:21:32.444Z,49.6658
2023-04-26T11:22:33.023Z,49.8027
2023-04-26T11:23:33.849Z,48.8440
2023-04-26T11:24:34.448Z,50.1033
2023-04-26T11:25:35.041Z,50.2080
2023-04-26T11:26:35.652Z,50.0123
2023-04-26T11:27:36.163Z,49.2635
2023-04-26T11:28:36.737Z,50.2539
2023-04-26T11:29:37.331Z,51.9382
2023-04-26T11:30:38.506Z,50.7507
2023-04-26T11:31:39.460Z,50.1239
2023-04-26T11:32:40.120Z,51.9271
2023-04-26T11:33:40.699Z,51.8683
2023-04-26T11:34:41.297Z,52.0030
2023-04-26T11:35:41.869Z,49.1051
2023-04-26T11:36:42.473Z,47.9321
2023-04-26T11:37:43.051Z,47.3373
2023-04-26T11:38:43.694Z,46.0420
2023-04-26T11:39:44.318Z,44.8920
2023-04-26T11:40:44.867Z,45.8503
2023-04-26T11:41:45.436Z,47.7858
2023-04-26T11:42:46.029Z,47.7992
2023-04-26T11:43:46.634Z,47.7916
2023-04-26T11:44:47.879Z,50.3227
2023-04-26T11:45:48.608Z,51.2791
2023-04-26T11:46:49.291Z,51.7662
2023-04-26T11:47:49.899Z,49.8621
2023-04-26T11:48:50.425Z,48.6466
2023-04-26T11:49:51.070Z,49.5211
2023-04-26T11:50:51.614Z,48.7169
2023-04-26T11:51:52.218Z,48.7818
2023-04-26T11:52:52.773Z,48.0203
2023-04-26T11:53:53.318Z,48.1958
2023-04-26T11:54:53.869Z,47.9874
2023-04-26T11:55:54.459Z,46.7819
2023-04-26T11:56:55.050Z,47.9676
2023-04-26T11:57:55.865Z,48.4695
2023-04-26T11:58:56.834Z,48.3042
2023-04-26T11:59:57.639Z,47.9703
2023-04-26T12:00:58.213Z,48.8236
2023-04-26T12:01:58.936Z,48.8527
2023-04-26T12:02:59.715Z,48.5421
2023-04-26T12:04:00.792Z,47.9057
2023-04-26T12:05:01.822Z,47.1978
2023-04-26T12:06:02.545Z,46.7129
2023-04-26T12:07:03.113Z,46.2120
2023-04-26T12:08:03.681Z,47.9549
2023-04-26T12:09:04.258Z,52.2305
2023-04-26T12:10:04.880Z,52.8536
2023-04-26T12:11:05.497Z,50.8114
2023-04-26T12:12:06.092Z,49.0593
2023-04-26T12:13:06.695Z,47.5993
2023-04-26T12:14:07.377Z,48.0075